createdAt,value
2022-07-31T00:01:43.630Z,100662.16
2022-07-31T00:06:47.825Z,100650.94
2022-07-31T00:11:50.623Z,100639.72
2022-07-31T00:16:53.473Z,100646.34
2022-07-31T00:21:58.583Z,100637.66
2022-07-31T00:27:01.873Z,100639.72
2022-07-31T00:32:05.326Z,100637.34
2022-07-31T00:37:09.993Z,100625.78
2022-07-31T00:42:18.280Z,100627.16
2022-07-31T00:47:23.969Z,100618.81
2022-07-31T00:52:29.923Z,100626.31
2022-07-31T00:57:32.821Z,100620.69
2022-07-31T01:02:35.648Z,100616.78
2022-07-31T01:07:39.864Z,100612.53
2022-07-31T01:12:53.833Z,100629.16
2022-07-31T01:17:57.909Z,100623.84
2022-07-31T01:23:25.968Z,100619.41
2022-07-31T01:29:01.723Z,100616.53
2022-07-31T01:34:12.171Z,100612.44
2022-07-31T01:39:15.109Z,100610.94
2022-07-31T01:44:21.278Z,100604.94
2022-07-31T01:49:24.930Z,100608.47
2022-07-31T01:54:29.369Z,100599.81
2022-07-31T01:59:35.517Z,100602.84
2022-07-31T02:04:47.043Z,100597.75
2022-07-31T02:09:57.996Z,100598.25
2022-07-31T02:15:09.816Z,100596.66
2022-07-31T02:20:16.783Z,100578.16
2022-07-31T02:25:19.637Z,100592.84
2022-07-31T02:30:24.996Z,100582.91
2022-07-31T02:35:28.108Z,100577.25
2022-07-31T02:40:31.580Z,100579.13
2022-07-31T02:45:36.137Z,100574.06
2022-07-31T02:50:40.750Z,100574.25
2022-07-31T02:55:45.265Z,100564.38
2022-07-31T03:00:58.620Z,100561.06
2022-07-31T03:06:01.665Z,100565.66
2022-07-31T03:11:04.812Z,100573.06
2022-07-31T03:16:11.816Z,100563.50
2022-07-31T03:21:14.913Z,100568.91
2022-07-31T03:26:18.657Z,100562.72
2022-07-31T03:31:23.021Z,100564.22
2022-07-31T03:36:26.276Z,100567.72
2022-07-31T03:41:29.132Z,100556.56
2022-07-31T03:46:33.484Z,100559.63
2022-07-31T03:51:36.647Z,100551.38
2022-07-31T03:56:41.984Z,100554.13
2022-07-31T04:01:57.686Z,100556.56
2022-07-31T04:07:27.819Z,100552.28
2022-07-31T04:12:30.677Z,100553.16
2022-07-31T04:17:34.909Z,100573.88
2022-07-31T04:22:37.734Z,100573.59
2022-07-31T04:27:48.194Z,100575.00
2022-07-31T04:32:53.524Z,100569.56
2022-07-31T04:37:58.610Z,100573.88
2022-07-31T04:43:02.755Z,100573.94
2022-07-31T04:48:07.689Z,100579.94
2022-07-31T04:53:10.672Z,100565.03
2022-07-31T04:58:16.273Z,100555.38
2022-07-31T05:03:20.469Z,100555.03
2022-07-31T05:08:23.423Z,100542.78
2022-07-31T05:13:26.541Z,100552.66
2022-07-31T05:23:51.931Z,100551.34
2022-07-31T05:29:13.265Z,100541.50
2022-07-31T05:34:17.440Z,100544.03
2022-07-31T05:39:20.295Z,100548.28
2022-07-31T05:44:49.022Z,100544.53
2022-07-31T05:49:53.165Z,100542.50
2022-07-31T05:54:57.817Z,100550.31
2022-07-31T06:00:33.086Z,100548.25
2022-07-31T06:05:38.020Z,100550.28
2022-07-31T06:10:40.816Z,100540.84
2022-07-31T06:15:49.039Z,100535.16
2022-07-31T06:20:53.609Z,100527.19
2022-07-31T06:25:56.910Z,100534.16
2022-07-31T06:30:59.743Z,100528.41
2022-07-31T06:36:04.361Z,100516.72
2022-07-31T06:41:34.503Z,100514.63
2022-07-31T06:46:57.102Z,100514.81
2022-07-31T06:52:19.263Z,100523.41
2022-07-31T06:57:22.097Z,100512.28
2022-07-31T07:02:25.742Z,100503.13
2022-07-31T07:07:31.771Z,100496.81
2022-07-31T07:12:35.446Z,100498.28
2022-07-31T07:17:38.269Z,100501.38
2022-07-31T07:22:49.306Z,100507.13
2022-07-31T07:28:12.135Z,100505.03
2022-07-31T07:33:18.990Z,100499.91
2022-07-31T07:38:43.193Z,100490.88
2022-07-31T07:43:48.733Z,100489.81
2022-07-31T07:49:05.700Z,100484.16
2022-07-31T07:54:38.909Z,100481.44
2022-07-31T08:00:01.141Z,100483.72
2022-07-31T08:05:19.314Z,100474.78
2022-07-31T08:10:23.692Z,100469.19
2022-07-31T08:15:32.324Z,100467.84
2022-07-31T08:20:46.508Z,100450.81
2022-07-31T08:25:51.548Z,100449.56
2022-07-31T08:30:55.055Z,100438.03
2022-07-31T08:36:00.789Z,100440.13
2022-07-31T08:41:05.307Z,100441.22
2022-07-31T08:46:09.240Z,100441.19
2022-07-31T08:51:16.797Z,100437.09
2022-07-31T08:56:46.309Z,100437.50
2022-07-31T09:01:51.293Z,100429.78
2022-07-31T09:06:56.841Z,100427.94
2022-07-31T09:12:01.418Z,100433.44
2022-07-31T09:17:33.468Z,100423.31
2022-07-31T09:22:36.470Z,100421.13
2022-07-31T09:27:41.928Z,100422.75
2022-07-31T09:32:45.958Z,100425.88
2022-07-31T09:37:56.302Z,100423.63
2022-07-31T09:43:24.574Z,100412.69
2022-07-31T09:48:29.853Z,100413.94
2022-07-31T09:53:43.759Z,100405.75
2022-07-31T09:59:08.874Z,100406.81
2022-07-31T10:04:17.753Z,100409.34
2022-07-31T10:09:22.731Z,100394.25
2022-07-31T10:14:51.778Z,100397.28
2022-07-31T10:19:59.459Z,100395.91
2022-07-31T10:25:25.508Z,100383.41
2022-07-31T10:30:30.828Z,100391.63
2022-07-31T10:35:44.285Z,100380.81
2022-07-31T10:41:25.203Z,100379.22
2022-07-31T10:46:31.124Z,100385.53
2022-07-31T10:51:53.826Z,100375.44
2022-07-31T10:57:23.217Z,100380.06
2022-07-31T11:02:50.437Z,100379.22
2022-07-31T11:08:13.077Z,100373.03
2022-07-31T11:13:33.641Z,100361.16
2022-07-31T11:18:59.741Z,100356.34
2022-07-31T11:24:13.523Z,100359.69
2022-07-31T11:30:01.218Z,100358.38
2022-07-31T11:34:54.096Z,100341.25
2022-07-31T11:39:58.145Z,100332.91
2022-07-31T11:45:11.296Z,100332.63
2022-07-31T11:50:16.657Z,100324.09
2022-07-31T11:55:19.504Z,100326.41
2022-07-31T12:00:26.691Z,100324.97
2022-07-31T12:05:54.833Z,100323.06
2022-07-31T12:10:59.814Z,100332.34
2022-07-31T12:16:05.141Z,100324.75
2022-07-31T12:21:10.035Z,100322.59
2022-07-31T12:26:22.133Z,100323.34
2022-07-31T12:31:24.773Z,100316.59
2022-07-31T12:36:28.716Z,100322.94
2022-07-31T12:41:32.523Z,100315.44
2022-07-31T12:46:37.009Z,100299.66
2022-07-31T12:51:46.342Z,100301.13
2022-07-31T12:56:49.789Z,100302.16
2022-07-31T13:01:52.647Z,100309.16
2022-07-31T13:06:56.956Z,100301.75
2022-07-31T13:11:59.801Z,100294.88
2022-07-31T13:17:02.874Z,100300.41
2022-07-31T13:22:07.568Z,100281.78
2022-07-31T13:27:10.352Z,100287.31
2022-07-31T13:32:13.217Z,100296.81
2022-07-31T13:37:17.368Z,100281.31
2022-07-31T13:42:20.373Z,100283.19
2022-07-31T13:47:23.671Z,100283.59
2022-07-31T13:52:28.428Z,100293.06
2022-07-31T13:57:31.265Z,100288.66
2022-07-31T14:02:34.073Z,100289.03
2022-07-31T14:07:45.040Z,100288.88
2022-07-31T14:12:51.351Z,100291.50
2022-07-31T14:17:54.151Z,100286.91
2022-07-31T14:22:58.490Z,100286.88
2022-07-31T14:28:01.340Z,100289.44
2022-07-31T14:33:04.659Z,100289.25
2022-07-31T14:38:09.005Z,100283.56
2022-07-31T14:43:12.569Z,100283.63
2022-07-31T14:48:16.005Z,100281.94
2022-07-31T14:53:20.527Z,100303.09
2022-07-31T14:58:23.353Z,100316.78
2022-07-31T15:03:26.137Z,100318.44
2022-07-31T15:08:30.321Z,100316.72
2022-07-31T15:13:36.058Z,100310.69
2022-07-31T15:18:41.681Z,100301.38
2022-07-31T15:23:45.876Z,100288.44
2022-07-31T15:28:48.752Z,100285.41
2022-07-31T15:33:51.685Z,100281.91
2022-07-31T15:38:55.916Z,100280.59
2022-07-31T15:43:59.215Z,100269.41
2022-07-31T15:49:02.878Z,100262.72
2022-07-31T15:54:07.226Z,100259.81
2022-07-31T15:59:10.061Z,100247.16
2022-07-31T16:04:16.448Z,100235.16
2022-07-31T16:09:23.917Z,100240.16
2022-07-31T16:14:26.810Z,100230.00
2022-07-31T16:19:29.872Z,100214.44
2022-07-31T16:24:38.148Z,100205.63
2022-07-31T16:29:59.962Z,100192.56
2022-07-31T16:35:03.813Z,100193.22
2022-07-31T16:40:10.067Z,100181.47
2022-07-31T16:45:32.486Z,100184.94
2022-07-31T16:50:35.408Z,100180.50
2022-07-31T16:56:01.031Z,100182.75
2022-07-31T17:01:04.043Z,100156.75
2022-07-31T17:06:07.161Z,100148.97
2022-07-31T17:11:11.332Z,100156.38
2022-07-31T17:16:14.230Z,100157.88
2022-07-31T17:21:17.101Z,100147.22
2022-07-31T17:26:22.272Z,100147.66
2022-07-31T17:31:25.198Z,100140.94
2022-07-31T17:36:28.377Z,100142.81
2022-07-31T17:41:32.640Z,100144.72
2022-07-31T17:46:36.706Z,100142.00
2022-07-31T17:51:57.834Z,100152.38
2022-07-31T17:57:05.571Z,100153.94
2022-07-31T18:02:08.705Z,100150.16
2022-07-31T18:07:12.271Z,100165.50
2022-07-31T18:12:17.004Z,100169.88
2022-07-31T18:17:20.433Z,100197.34
2022-07-31T18:22:23.311Z,100201.72
2022-07-31T18:27:27.614Z,100209.16
2022-07-31T18:32:31.054Z,100209.09
2022-07-31T18:37:34.001Z,100217.97
2022-07-31T18:42:38.173Z,100221.34
2022-07-31T18:47:41.088Z,100227.25
2022-07-31T18:52:44.354Z,100236.09
2022-07-31T18:57:48.642Z,100236.31
2022-07-31T19:02:51.497Z,100240.25
2022-07-31T19:07:54.341Z,100239.13
2022-07-31T19:12:58.493Z,100231.75
2022-07-31T19:18:02.152Z,100234.81
2022-07-31T19:23:06.157Z,100236.38
2022-07-31T19:28:16.731Z,100235.97
2022-07-31T19:33:19.810Z,100247.66
2022-07-31T19:38:22.666Z,100245.38
2022-07-31T19:43:26.940Z,100253.88
2022-07-31T19:48:29.785Z,100250.53
2022-07-31T19:53:33.041Z,100252.94
2022-07-31T19:58:38.283Z,100242.41
2022-07-31T20:03:41.541Z,100253.59
2022-07-31T20:08:44.514Z,100253.66
2022-07-31T20:13:48.742Z,100253.13
2022-07-31T20:18:51.890Z,100260.09
2022-07-31T20:23:56.536Z,100260.47
2022-07-31T20:29:00.728Z,100255.47
2022-07-31T20:40:54.675Z,100264.03
2022-07-31T20:46:00.125Z,100256.22
2022-07-31T20:51:04.549Z,100258.44
2022-07-31T20:56:07.401Z,100257.41
2022-07-31T21:01:11.600Z,100261.09
2022-07-31T21:06:14.571Z,100252.06
2022-07-31T21:11:17.290Z,100251.16
2022-07-31T21:16:21.430Z,100253.28
2022-07-31T21:21:24.222Z,100262.91
2022-07-31T21:26:28.353Z,100256.63
2022-07-31T21:31:33.016Z,100256.53
2022-07-31T21:36:36.580Z,100258.88
2022-07-31T21:41:39.631Z,100263.09
2022-07-31T21:46:50.561Z,100259.19
2022-07-31T21:51:55.273Z,100257.13
2022-07-31T21:56:58.022Z,100268.81
2022-07-31T22:02:02.438Z,100278.31
2022-07-31T22:07:22.959Z,100267.28
2022-07-31T22:12:25.981Z,100265.94
2022-07-31T22:17:30.229Z,100281.66
2022-07-31T22:22:33.658Z,100276.50
2022-07-31T22:27:56.509Z,100269.72
2022-07-31T22:33:01.518Z,100279.56
2022-07-31T22:38:04.601Z,100279.19
2022-07-31T22:43:08.326Z,100281.53
2022-07-31T22:48:32.833Z,100279.63
2022-07-31T22:53:36.175Z,100293.16
2022-07-31T22:58:39.016Z,100283.84
2022-07-31T23:03:43.158Z,100273.50
2022-07-31T23:08:46.004Z,100279.59
2022-07-31T23:13:53.139Z,100277.09
2022-07-31T23:18:57.334Z,100280.00
2022-07-31T23:24:00.304Z,100276.88
2022-07-31T23:29:03.236Z,100279.22
2022-07-31T23:34:07.403Z,100279.78
2022-07-31T23:39:11.683Z,100279.59
2022-07-31T23:44:18.563Z,100271.78
2022-07-31T23:49:29.747Z,100278.88
2022-07-31T23:54:32.881Z,100271.91
2022-07-31T23:59:35.727Z,100278.44
